Fulda, Minnesota
Current Conditions -  °F | °C
As of 6:14 AM on Saturday 25 Oct 2014 (Local Time) from KDVP Reporting Station
Clear Clear  
Wind Chill: 43°   Ceiling: Unl
Heat Index: 47°   Visibility: 10mi
Dew Point: 35°   Wind: 8mph
Humidity: 63%   Direction: 320°NW
Pressure: 30.08"   Gusts: NA
Location:  43.87°N, 95.6°W
Report Text: KDVP 251114Z AUTO 32007KT 10SM CLR 08/02 A3008 RMK AO2 T00830016
Loading
Personal Weather Stations






























Interactive Weather Map
Tropical Storm Tracking
New forecast layout! Learn more

10-Day Weather Forecast

Advertisements
Track Severe Weather on mobile